Time;durP1;ratioP1;P1;durP2;ratioP2;P2;SDS_P1;SDS_P2;PMS_P1;PMS_P2;Temp;Humidity;BMP_temperature;BMP_pressure;BME280_temperature;BME280_humidity;BME280_pressure;Samples;Min_cycle;Max_cycle;Signal;HPM_P1;HPM_P2
2023/12/06 00:01:48;;;;;;;0.08;0.08;;;2.10;91.50;;;;;;5026639;28;20409;-74
2023/12/06 00:04:14;;;;;;;0.00;0.00;;;2.20;91.50;;;;;;5027466;28;20044;-74
2023/12/06 00:06:39;;;;;;;2.00;0.57;;;2.20;91.50;;;;;;5027149;28;20077;-74
2023/12/06 00:09:05;;;;;;;0.38;0.38;;;2.20;91.50;;;;;;5026960;28;20179;-74
2023/12/06 00:11:30;;;;;;;0.10;0.10;;;2.20;91.40;;;;;;5026598;28;20058;-74
2023/12/06 00:13:56;;;;;;;0.10;0.10;;;2.20;91.50;;;;;;5027204;28;20056;-74
2023/12/06 00:16:22;;;;;;;1.45;1.40;;;2.20;91.50;;;;;;5027333;28;20176;-74
2023/12/06 00:18:49;;;;;;;0.20;0.20;;;2.20;91.50;;;;;;5026621;28;20047;-74
2023/12/06 00:21:15;;;;;;;0.00;0.00;;;2.30;91.60;;;;;;5027015;28;20049;-74
2023/12/06 00:23:40;;;;;;;0.80;0.80;;;2.30;91.50;;;;;;5027263;28;20068;-73
2023/12/06 00:26:07;;;;;;;0.15;0.15;;;2.30;91.30;;;;;;5026663;28;20046;-74
2023/12/06 00:28:33;;;;;;;0.00;0.00;;;2.30;91.60;;;;;;5026717;28;20535;-74
2023/12/06 00:30:58;;;;;;;0.20;0.20;;;2.30;91.50;;;;;;5026862;28;20057;-74
2023/12/06 00:33:24;;;;;;;0.00;0.00;;;2.30;91.50;;;;;;5026992;28;20076;-74
2023/12/06 00:35:50;;;;;;;0.22;0.22;;;2.30;91.60;;;;;;5026629;28;20054;-74
2023/12/06 00:38:16;;;;;;;0.10;0.10;;;2.40;91.60;;;;;;5026856;28;20064;-74
2023/12/06 00:40:44;;;;;;;0.10;0.10;;;2.40;91.50;;;;;;5009149;28;20067;-74
2023/12/06 00:43:10;;;;;;;0.00;0.00;;;2.40;91.50;;;;;;5026803;28;20037;-74
2023/12/06 00:45:35;;;;;;;0.45;0.45;;;2.40;91.50;;;;;;5026789;28;20049;-74
2023/12/06 00:48:01;;;;;;;0.17;0.17;;;2.40;91.50;;;;;;5026777;28;20389;-74
2023/12/06 00:50:27;;;;;;;0.10;0.10;;;2.40;91.50;;;;;;5026434;28;20053;-74
2023/12/06 00:52:52;;;;;;;0.20;0.20;;;2.40;91.50;;;;;;5029067;28;20045;-74
2023/12/06 00:55:18;;;;;;;0.03;0.03;;;2.40;91.50;;;;;;5030805;28;20124;-74
2023/12/06 00:57:43;;;;;;;0.10;0.10;;;2.40;91.50;;;;;;5030702;28;20080;-74
2023/12/06 01:00:10;;;;;;;0.00;0.00;;;2.50;91.50;;;;;;5030370;28;20052;-74
2023/12/06 01:02:35;;;;;;;0.10;0.10;;;2.50;91.50;;;;;;5030545;28;20092;-74
2023/12/06 01:05:01;;;;;;;0.10;0.10;;;2.50;91.40;;;;;;5030526;28;20128;-74
2023/12/06 01:07:27;;;;;;;0.70;0.70;;;2.50;91.40;;;;;;5030713;28;20126;-74
2023/12/06 01:09:53;;;;;;;0.20;0.20;;;2.50;91.20;;;;;;5030589;28;20070;-74
2023/12/06 01:12:19;;;;;;;0.90;0.90;;;2.50;91.40;;;;;;5030610;28;20049;-74
2023/12/06 01:14:45;;;;;;;0.10;0.10;;;2.60;91.40;;;;;;5029986;28;20148;-74
2023/12/06 01:17:11;;;;;;;0.10;0.10;;;2.50;91.30;;;;;;5030489;28;20124;-74
2023/12/06 01:19:36;;;;;;;0.10;0.10;;;2.60;91.30;;;;;;5030422;28;20044;-74
2023/12/06 01:22:02;;;;;;;0.00;0.00;;;2.60;91.30;;;;;;5030320;28;20053;-74
2023/12/06 01:24:28;;;;;;;1.38;1.27;;;2.60;91.20;;;;;;5030296;28;20136;-75
2023/12/06 01:26:53;;;;;;;0.00;0.00;;;2.70;91.30;;;;;;4996129;28;20060;-74
2023/12/06 01:29:19;;;;;;;0.00;0.00;;;2.70;91.20;;;;;;5029941;28;20418;-74
2023/12/06 01:31:45;;;;;;;0.00;0.00;;;2.70;91.00;;;;;;5012354;28;20107;-74
2023/12/06 01:34:10;;;;;;;0.10;0.10;;;2.70;91.20;;;;;;5029875;28;20145;-74
2023/12/06 01:36:36;;;;;;;0.10;0.10;;;2.70;91.20;;;;;;5029935;28;20046;-74
2023/12/06 01:39:02;;;;;;;0.10;0.10;;;2.70;91.20;;;;;;5029469;28;20047;-74
2023/12/06 01:41:27;;;;;;;0.10;0.10;;;2.70;91.10;;;;;;5029871;28;20869;-74
2023/12/06 01:43:53;;;;;;;0.00;0.00;;;2.70;91.10;;;;;;5012576;28;20041;-74
2023/12/06 01:46:19;;;;;;;0.20;0.20;;;2.60;91.00;;;;;;5029978;28;20591;-74
2023/12/06 01:48:46;;;;;;;0.10;0.10;;;2.70;91.10;;;;;;5029870;28;20061;-74
2023/12/06 01:51:14;;;;;;;0.00;0.00;;;2.70;91.20;;;;;;5011844;28;20056;-74
2023/12/06 01:53:39;;;;;;;0.00;0.00;;;2.70;91.10;;;;;;5029684;28;20088;-74
2023/12/06 01:56:07;;;;;;;0.32;0.32;;;2.70;91.10;;;;;;5011997;28;20475;-74
2023/12/06 01:58:35;;;;;;;0.10;0.10;;;2.70;91.00;;;;;;5029721;28;20083;-74
2023/12/06 02:01:02;;;;;;;0.10;0.10;;;2.70;91.10;;;;;;5030148;28;20051;-73
2023/12/06 02:03:28;;;;;;;0.05;0.05;;;2.70;91.10;;;;;;5028533;28;20050;-74
2023/12/06 02:05:54;;;;;;;0.00;0.00;;;2.70;91.00;;;;;;5029201;28;20100;-74
2023/12/06 02:08:20;;;;;;;0.00;0.00;;;2.70;91.00;;;;;;5029530;28;20044;-74
2023/12/06 02:10:45;;;;;;;0.15;0.15;;;2.70;91.10;;;;;;5029017;28;20128;-74
2023/12/06 02:13:11;;;;;;;0.08;0.08;;;2.70;91.10;;;;;;5028890;28;20100;-74
2023/12/06 02:15:37;;;;;;;0.05;0.05;;;2.60;91.10;;;;;;5029218;28;20136;-74
2023/12/06 02:18:04;;;;;;;0.10;0.10;;;2.70;91.10;;;;;;5029243;28;20900;-73
2023/12/06 02:20:30;;;;;;;0.50;0.50;;;2.70;91.20;;;;;;5028730;28;20046;-74
2023/12/06 02:22:58;;;;;;;0.10;0.10;;;2.70;91.20;;;;;;5010955;28;20041;-74
2023/12/06 02:25:24;;;;;;;0.10;0.10;;;2.70;91.20;;;;;;5028862;28;20073;-74
2023/12/06 02:27:50;;;;;;;0.00;0.00;;;2.70;91.20;;;;;;5028489;28;20115;-74
2023/12/06 02:30:15;;;;;;;0.00;0.00;;;2.70;91.10;;;;;;5029147;28;20053;-74
2023/12/06 02:32:41;;;;;;;0.00;0.00;;;2.70;91.30;;;;;;5028726;28;20132;-74
2023/12/06 02:35:44;;;;;;;0.00;0.00;;;2.70;91.40;;;;;;5028450;28;20160;-74
2023/12/06 02:38:12;;;;;;;0.00;0.00;;;2.70;91.30;;;;;;5028581;28;20049;-74
2023/12/06 02:40:40;;;;;;;0.10;0.10;;;2.70;91.50;;;;;;5028646;28;20045;-74
2023/12/06 02:43:06;;;;;;;0.10;0.10;;;2.70;91.40;;;;;;5010423;28;20103;-74
2023/12/06 02:45:32;;;;;;;0.00;0.00;;;2.70;91.40;;;;;;5028398;28;20061;-74
2023/12/06 02:47:57;;;;;;;0.10;0.10;;;2.70;91.40;;;;;;5028411;28;20104;-74
2023/12/06 02:50:23;;;;;;;0.10;0.10;;;2.70;91.50;;;;;;5028659;28;20045;-74
2023/12/06 02:52:48;;;;;;;0.10;0.10;;;2.80;91.50;;;;;;5028155;28;20046;-74
2023/12/06 02:55:14;;;;;;;0.10;0.10;;;2.80;91.40;;;;;;5028247;28;20492;-74
2023/12/06 02:57:39;;;;;;;0.00;0.00;;;2.90;91.50;;;;;;5028339;28;20127;-74
2023/12/06 03:00:07;;;;;;;0.00;0.00;;;2.90;91.50;;;;;;5028299;28;20504;-74
2023/12/06 03:02:33;;;;;;;0.00;0.00;;;2.80;91.50;;;;;;5028102;28;20050;-74
2023/12/06 03:04:58;;;;;;;0.10;0.10;;;2.90;91.50;;;;;;5028465;28;20496;-74
2023/12/06 03:07:24;;;;;;;0.00;0.00;;;2.90;91.50;;;;;;5028446;28;20094;-74
2023/12/06 03:09:49;;;;;;;0.10;0.10;;;3.00;91.60;;;;;;5010900;28;20191;-74
2023/12/06 03:12:15;;;;;;;0.20;0.20;;;3.00;91.50;;;;;;5009939;28;20041;-74
2023/12/06 03:14:41;;;;;;;0.00;0.00;;;2.90;91.50;;;;;;5028105;28;20037;-74
2023/12/06 03:17:06;;;;;;;0.03;0.03;;;2.90;91.50;;;;;;5027920;28;20049;-74
2023/12/06 03:19:32;;;;;;;0.55;0.35;;;3.00;91.60;;;;;;5028249;28;20404;-74
2023/12/06 03:21:57;;;;;;;0.00;0.00;;;3.00;91.60;;;;;;5028216;28;20045;-74
2023/12/06 03:24:23;;;;;;;0.00;0.00;;;3.00;91.60;;;;;;5010196;28;20496;-74
2023/12/06 03:26:48;;;;;;;0.10;0.10;;;3.00;91.70;;;;;;5028094;28;20053;-74
2023/12/06 03:29:14;;;;;;;0.00;0.00;;;3.00;91.60;;;;;;5010196;28;20057;-74
2023/12/06 03:31:40;;;;;;;0.32;0.32;;;3.00;91.70;;;;;;5027679;28;20041;-74
2023/12/06 03:34:06;;;;;;;0.03;0.03;;;3.10;91.70;;;;;;5027655;28;20041;-74
2023/12/06 03:36:31;;;;;;;0.10;0.10;;;3.10;91.60;;;;;;5010157;28;20092;-74
2023/12/06 03:38:57;;;;;;;0.10;0.10;;;3.10;91.60;;;;;;5010123;28;20107;-74
2023/12/06 03:41:23;;;;;;;0.00;0.00;;;3.10;91.50;;;;;;5010149;28;20042;-74
2023/12/06 03:43:48;;;;;;;0.00;0.00;;;3.10;91.60;;;;;;5027625;28;20144;-74
2023/12/06 03:46:14;;;;;;;0.00;0.00;;;3.10;91.50;;;;;;5027913;28;20048;-74
2023/12/06 03:48:39;;;;;;;0.03;0.03;;;3.00;91.60;;;;;;5027567;28;20496;-74
2023/12/06 03:51:05;;;;;;;0.10;0.10;;;3.00;91.50;;;;;;5027626;28;20056;-74
2023/12/06 03:53:31;;;;;;;0.00;0.00;;;3.00;91.50;;;;;;5027461;28;20376;-74
2023/12/06 03:55:56;;;;;;;0.43;0.43;;;3.10;91.60;;;;;;5027623;28;20057;-74
2023/12/06 03:58:22;;;;;;;0.10;0.10;;;3.10;91.50;;;;;;5027294;28;20048;-74
2023/12/06 04:00:48;;;;;;;0.00;0.00;;;3.10;91.50;;;;;;5027564;28;20107;-74
2023/12/06 04:03:14;;;;;;;0.10;0.10;;;3.10;91.50;;;;;;5028504;28;20045;-74
2023/12/06 04:05:42;;;;;;;0.05;0.05;;;3.10;91.50;;;;;;5010805;28;20045;-74
2023/12/06 04:08:08;;;;;;;0.00;0.00;;;3.20;91.50;;;;;;5027869;28;20156;-74
2023/12/06 04:10:33;;;;;;;0.00;0.00;;;3.20;91.50;;;;;;5028499;28;20048;-74
2023/12/06 04:12:59;;;;;;;0.10;0.10;;;3.20;91.40;;;;;;5028040;28;20053;-74
2023/12/06 04:15:25;;;;;;;0.45;0.45;;;3.20;91.30;;;;;;5028250;28;20562;-74
2023/12/06 04:17:50;;;;;;;0.00;0.00;;;3.10;91.40;;;;;;5027904;28;20559;-74
2023/12/06 04:20:17;;;;;;;0.10;0.10;;;3.20;91.40;;;;;;5028061;28;20052;-74
2023/12/06 04:22:43;;;;;;;0.03;0.03;;;3.20;91.30;;;;;;5027971;28;20208;-74
2023/12/06 04:25:09;;;;;;;0.20;0.20;;;3.10;91.30;;;;;;5027468;28;20637;-74
2023/12/06 04:27:34;;;;;;;0.00;0.00;;;3.20;91.20;;;;;;5027201;28;20046;-74
2023/12/06 04:30:00;;;;;;;0.20;0.20;;;3.20;91.20;;;;;;5027949;28;20508;-74
2023/12/06 04:32:26;;;;;;;0.00;0.00;;;3.20;91.10;;;;;;5027520;28;20477;-74
2023/12/06 04:34:55;;;;;;;0.00;0.00;;;3.20;91.20;;;;;;5027781;28;20065;-74
2023/12/06 04:37:21;;;;;;;0.10;0.10;;;3.20;91.10;;;;;;5028023;28;20164;-74
2023/12/06 04:39:47;;;;;;;0.00;0.00;;;3.20;91.20;;;;;;5027187;28;20044;-74
2023/12/06 04:42:14;;;;;;;0.00;0.00;;;3.20;91.20;;;;;;5010116;28;20048;-74
2023/12/06 04:44:40;;;;;;;0.20;0.20;;;3.20;91.10;;;;;;5027932;28;20384;-74
2023/12/06 04:47:06;;;;;;;0.05;0.05;;;3.20;91.10;;;;;;5027573;28;20056;-74
2023/12/06 04:49:31;;;;;;;0.00;0.00;;;3.20;91.20;;;;;;5010210;28;20057;-74
2023/12/06 04:51:59;;;;;;;0.00;0.00;;;3.30;91.10;;;;;;5027796;28;20049;-74
2023/12/06 04:54:25;;;;;;;0.00;0.00;;;3.30;91.20;;;;;;5027639;28;20512;-74
2023/12/06 04:56:51;;;;;;;0.00;0.00;;;3.30;91.10;;;;;;5027592;28;20046;-74
2023/12/06 04:59:16;;;;;;;0.08;0.08;;;3.40;91.10;;;;;;5027934;28;20040;-74
2023/12/06 05:01:43;;;;;;;0.00;0.00;;;3.40;91.10;;;;;;5027605;28;20586;-73
2023/12/06 05:04:09;;;;;;;0.08;0.08;;;3.40;91.10;;;;;;5027438;28;20378;-74
2023/12/06 05:06:35;;;;;;;0.10;0.10;;;3.50;91.00;;;;;;5027787;28;20045;-74
2023/12/06 05:09:00;;;;;;;0.03;0.03;;;3.40;91.00;;;;;;5027554;28;20045;-74
2023/12/06 05:11:26;;;;;;;0.10;0.10;;;3.50;91.00;;;;;;5027630;28;20519;-74
2023/12/06 05:13:52;;;;;;;0.30;0.30;;;3.50;90.90;;;;;;5027737;28;20080;-74
2023/12/06 05:16:17;;;;;;;0.00;0.00;;;3.50;90.90;;;;;;5026618;28;20041;-74
2023/12/06 05:18:43;;;;;;;0.80;0.80;;;3.50;90.90;;;;;;5026552;28;20152;-74
2023/12/06 05:21:08;;;;;;;0.00;0.00;;;3.50;90.90;;;;;;5009804;28;20041;-73
2023/12/06 05:23:34;;;;;;;0.20;0.20;;;3.50;90.80;;;;;;5026271;28;20049;-74
2023/12/06 05:26:01;;;;;;;0.10;0.10;;;3.50;90.80;;;;;;5027318;28;20076;-74
2023/12/06 05:28:26;;;;;;;0.10;0.10;;;3.50;90.80;;;;;;5027533;28;20183;-74
2023/12/06 05:30:52;;;;;;;0.10;0.10;;;3.60;90.80;;;;;;5027646;28;20140;-74
2023/12/06 05:33:18;;;;;;;0.00;0.00;;;3.60;90.80;;;;;;5027595;28;20121;-74
2023/12/06 05:35:46;;;;;;;0.00;0.00;;;3.60;90.70;;;;;;5027456;28;20041;-74
2023/12/06 05:38:12;;;;;;;0.00;0.00;;;3.60;90.70;;;;;;5027445;28;20050;-74
2023/12/06 05:40:37;;;;;;;0.40;0.40;;;3.60;90.60;;;;;;5031173;28;20054;-74
2023/12/06 05:43:03;;;;;;;0.10;0.10;;;3.60;90.60;;;;;;5013591;28;20072;-73
2023/12/06 05:45:29;;;;;;;0.05;0.05;;;3.60;90.40;;;;;;5031004;28;20488;-74
2023/12/06 05:47:55;;;;;;;0.00;0.00;;;3.60;90.50;;;;;;5030985;28;20136;-74
2023/12/06 05:50:20;;;;;;;0.10;0.10;;;3.60;90.50;;;;;;5030415;28;20117;-74
2023/12/06 05:52:46;;;;;;;0.10;0.10;;;3.60;90.50;;;;;;5030677;28;20128;-74
2023/12/06 05:55:12;;;;;;;0.10;0.10;;;3.60;90.50;;;;;;5030969;28;20104;-74
2023/12/06 05:57:37;;;;;;;0.00;0.00;;;3.60;90.40;;;;;;5030797;28;20427;-74
2023/12/06 06:00:05;;;;;;;0.00;0.00;;;3.60;90.50;;;;;;4996726;28;20046;-75
2023/12/06 06:02:31;;;;;;;0.00;0.00;;;3.60;90.40;;;;;;5012859;28;20057;-74
2023/12/06 06:04:57;;;;;;;0.63;0.63;;;3.60;90.40;;;;;;5030354;28;20064;-74
2023/12/06 06:07:24;;;;;;;0.10;0.10;;;3.60;90.40;;;;;;5012672;28;20084;-74
2023/12/06 06:09:50;;;;;;;0.10;0.10;;;3.60;90.20;;;;;;5012600;28;20053;-74
2023/12/06 06:12:15;;;;;;;0.00;0.00;;;3.60;90.40;;;;;;5030434;28;20049;-74
2023/12/06 06:14:42;;;;;;;0.00;0.00;;;3.60;90.40;;;;;;5030203;28;20041;-74
2023/12/06 06:17:07;;;;;;;0.10;0.10;;;3.60;90.30;;;;;;5030107;28;20045;-74
2023/12/06 06:19:33;;;;;;;0.00;0.00;;;3.70;90.30;;;;;;5030078;28;20090;-74
2023/12/06 06:21:58;;;;;;;0.00;0.00;;;3.70;90.30;;;;;;5012449;28;20054;-74
2023/12/06 06:24:24;;;;;;;0.00;0.00;;;3.70;90.30;;;;;;5029903;28;20044;-74
2023/12/06 06:26:50;;;;;;;0.00;0.00;;;3.70;90.20;;;;;;5012211;28;20045;-73
2023/12/06 06:29:15;;;;;;;0.20;0.20;;;3.70;90.20;;;;;;5029617;28;20109;-74
2023/12/06 06:31:41;;;;;;;0.10;0.10;;;3.70;90.10;;;;;;5029829;28;20951;-74
2023/12/06 06:34:06;;;;;;;0.10;0.10;;;3.70;90.10;;;;;;5029879;28;20053;-74
2023/12/06 06:36:32;;;;;;;0.00;0.00;;;3.70;90.00;;;;;;5029710;28;20134;-74
2023/12/06 06:38:58;;;;;;;0.10;0.10;;;3.80;90.00;;;;;;5029742;28;20046;-73
2023/12/06 06:41:24;;;;;;;0.00;0.00;;;3.80;89.80;;;;;;5029565;28;20056;-74
2023/12/06 06:43:51;;;;;;;0.00;0.00;;;3.70;89.70;;;;;;5029475;28;20049;-74
2023/12/06 06:46:16;;;;;;;0.08;0.08;;;3.70;89.60;;;;;;5029308;28;20052;-74
2023/12/06 06:48:42;;;;;;;0.30;0.30;;;3.70;89.30;;;;;;5029389;28;20045;-74
2023/12/06 06:51:09;;;;;;;0.10;0.10;;;3.70;89.40;;;;;;5028966;28;20048;-74
2023/12/06 06:53:35;;;;;;;0.00;0.00;;;3.70;89.40;;;;;;5011882;28;20163;-74
2023/12/06 06:56:01;;;;;;;0.17;0.17;;;3.80;89.40;;;;;;5029645;28;20906;-74
2023/12/06 06:58:27;;;;;;;1.58;1.48;;;3.70;89.40;;;;;;5028980;28;20057;-74
2023/12/06 07:00:53;;;;;;;0.00;0.00;;;3.80;89.40;;;;;;5011733;28;20508;-73
2023/12/06 07:03:19;;;;;;;0.05;0.05;;;3.80;89.30;;;;;;5029305;28;20056;-74
2023/12/06 07:05:45;;;;;;;0.10;0.10;;;3.70;89.40;;;;;;5029217;28;20057;-74
2023/12/06 07:08:10;;;;;;;0.10;0.10;;;3.80;89.40;;;;;;5029335;28;20045;-74
2023/12/06 07:10:38;;;;;;;0.00;0.00;;;3.80;89.30;;;;;;5029125;28;20098;-73
2023/12/06 07:13:04;;;;;;;0.00;0.00;;;3.80;89.40;;;;;;5029089;28;20049;-74
2023/12/06 07:15:30;;;;;;;0.00;0.00;;;3.80;89.30;;;;;;5029138;28;20211;-74
2023/12/06 07:17:56;;;;;;;0.00;0.00;;;3.70;89.30;;;;;;5011504;28;20124;-74
2023/12/06 07:20:24;;;;;;;0.10;0.10;;;3.80;89.20;;;;;;5011515;28;20055;-74
2023/12/06 07:22:50;;;;;;;1.05;0.98;;;3.80;89.10;;;;;;5029110;28;20046;-74
2023/12/06 07:25:15;;;;;;;0.10;0.10;;;3.80;89.10;;;;;;5029094;28;20041;-73
2023/12/06 07:27:44;;;;;;;0.00;0.00;;;3.80;88.90;;;;;;5028670;28;20671;-73
2023/12/06 07:30:19;;;;;;;0.00;0.00;;;3.80;88.90;;;;;;5028835;28;20484;-73
2023/12/06 07:32:45;;;;;;;0.08;0.08;;;3.80;88.80;;;;;;5011505;28;20573;-74
2023/12/06 07:35:11;;;;;;;0.85;0.65;;;3.80;88.80;;;;;;5011848;28;20076;-75
2023/12/06 07:37:36;;;;;;;0.05;0.05;;;3.80;88.90;;;;;;5028792;28;20045;-74
2023/12/06 07:40:03;;;;;;;0.08;0.08;;;3.80;88.90;;;;;;5028934;28;20048;-74
2023/12/06 07:42:29;;;;;;;0.08;0.08;;;3.80;88.90;;;;;;5028158;28;20041;-75
2023/12/06 07:44:55;;;;;;;0.10;0.10;;;3.80;88.80;;;;;;5028729;28;20578;-74
2023/12/06 07:47:20;;;;;;;0.00;0.00;;;3.80;88.90;;;;;;5029055;28;20053;-74
2023/12/06 07:49:46;;;;;;;0.10;0.10;;;3.80;88.90;;;;;;5028659;28;20099;-74
2023/12/06 07:52:12;;;;;;;0.00;0.00;;;3.80;89.00;;;;;;5028131;28;20048;-74
2023/12/06 07:54:37;;;;;;;0.45;0.45;;;3.80;89.00;;;;;;5029070;28;20037;-74
2023/12/06 07:57:03;;;;;;;0.10;0.10;;;3.80;89.00;;;;;;5028809;28;20046;-74
2023/12/06 07:59:30;;;;;;;0.40;0.40;;;3.80;89.10;;;;;;5011302;28;20491;-74
2023/12/06 08:01:55;;;;;;;0.00;0.00;;;3.90;89.10;;;;;;5027795;28;20048;-74
2023/12/06 08:04:21;;;;;;;0.35;0.35;;;3.90;89.20;;;;;;5010364;28;20048;-74
2023/12/06 08:06:46;;;;;;;0.00;0.00;;;3.90;89.20;;;;;;5028005;28;20128;-74
2023/12/06 08:09:12;;;;;;;0.85;0.32;;;3.90;89.10;;;;;;5028307;28;20041;-74
2023/12/06 08:11:39;;;;;;;0.00;0.00;;;3.90;89.30;;;;;;5027978;28;20042;-74
2023/12/06 08:14:05;;;;;;;0.10;0.10;;;3.90;89.30;;;;;;5010334;28;20191;-75
2023/12/06 08:16:31;;;;;;;0.10;0.10;;;3.90;89.40;;;;;;5027742;28;20090;-74
2023/12/06 08:18:56;;;;;;;0.10;0.10;;;3.90;89.40;;;;;;5028118;28;20041;-74
2023/12/06 08:21:22;;;;;;;0.00;0.00;;;4.00;89.40;;;;;;5028068;28;20080;-74
2023/12/06 08:23:48;;;;;;;0.43;0.43;;;3.90;89.40;;;;;;5027911;28;21426;-75
2023/12/06 08:26:13;;;;;;;0.30;0.30;;;3.90;89.50;;;;;;5028292;28;20061;-74
2023/12/06 08:28:39;;;;;;;0.00;0.00;;;3.90;89.60;;;;;;5027797;28;20049;-75
2023/12/06 08:31:05;;;;;;;0.00;0.00;;;3.90;89.70;;;;;;5028066;28;20049;-74
2023/12/06 08:33:31;;;;;;;0.00;0.00;;;3.90;89.80;;;;;;5028245;28;20064;-74
2023/12/06 08:35:57;;;;;;;0.10;0.10;;;3.80;89.90;;;;;;5028057;28;20460;-74
2023/12/06 08:38:23;;;;;;;0.10;0.10;;;3.80;89.90;;;;;;5027749;28;20049;-74
2023/12/06 08:40:49;;;;;;;0.00;0.00;;;3.80;90.00;;;;;;5027435;28;20845;-74
2023/12/06 08:43:14;;;;;;;1.85;1.65;;;3.90;90.00;;;;;;5028134;28;20531;-74
2023/12/06 08:45:40;;;;;;;0.43;0.43;;;3.90;89.90;;;;;;5027961;28;20104;-74
2023/12/06 08:48:06;;;;;;;0.30;0.30;;;3.90;90.00;;;;;;4993922;28;20829;-74
2023/12/06 08:50:31;;;;;;;1.75;0.75;;;3.90;89.90;;;;;;5010146;28;20042;-74
2023/12/06 08:52:57;;;;;;;0.30;0.30;;;3.80;90.00;;;;;;5027861;28;20068;-74
2023/12/06 08:55:23;;;;;;;0.10;0.10;;;3.90;90.00;;;;;;5027920;28;20033;-75
2023/12/06 08:57:50;;;;;;;0.70;0.70;;;3.90;90.10;;;;;;5027448;28;20497;-74
2023/12/06 09:00:16;;;;;;;0.10;0.10;;;3.80;90.00;;;;;;5027991;28;20049;-74
2023/12/06 09:02:42;;;;;;;0.00;0.00;;;3.80;90.10;;;;;;5027575;28;20136;-73
2023/12/06 09:05:11;;;;;;;0.70;0.70;;;3.80;90.20;;;;;;5027611;28;20442;-74
2023/12/06 09:07:38;;;;;;;0.17;0.17;;;3.90;90.20;;;;;;5027809;28;20033;-74
2023/12/06 09:10:04;;;;;;;0.00;0.00;;;3.90;90.20;;;;;;5027681;28;20048;-74
2023/12/06 09:12:30;;;;;;;0.00;0.00;;;3.90;90.20;;;;;;5027847;28;20199;-73
2023/12/06 09:14:56;;;;;;;0.10;0.10;;;3.90;90.10;;;;;;5031287;28;20053;-74
2023/12/06 09:17:22;;;;;;;0.05;0.05;;;3.90;90.20;;;;;;5031344;28;20053;-73
2023/12/06 09:19:48;;;;;;;0.00;0.00;;;3.90;90.10;;;;;;5031458;28;20048;-74
2023/12/06 09:22:15;;;;;;;0.03;0.03;;;3.90;90.20;;;;;;5031226;28;20136;-73
2023/12/06 09:24:43;;;;;;;0.45;0.45;;;4.00;90.20;;;;;;5030786;28;20549;-74
2023/12/06 09:27:09;;;;;;;0.10;0.10;;;4.00;90.20;;;;;;5031352;28;20064;-74
2023/12/06 09:29:34;;;;;;;0.10;0.10;;;4.10;90.20;;;;;;5031059;28;20049;-74
2023/12/06 09:32:00;;;;;;;0.10;0.10;;;4.00;90.10;;;;;;5013080;28;20111;-74
2023/12/06 09:34:26;;;;;;;0.10;0.10;;;4.10;90.10;;;;;;5031024;28;20041;-74
2023/12/06 09:36:51;;;;;;;0.00;0.00;;;4.10;90.00;;;;;;5030872;28;20562;-73
2023/12/06 09:39:20;;;;;;;0.20;0.20;;;4.10;90.00;;;;;;5013219;28;20049;-73
2023/12/06 09:41:46;;;;;;;0.30;0.30;;;4.10;90.00;;;;;;5030427;28;20409;-75
2023/12/06 09:44:14;;;;;;;0.00;0.00;;;4.10;89.90;;;;;;5029941;28;20044;-74
2023/12/06 09:46:42;;;;;;;0.10;0.10;;;4.10;89.80;;;;;;5029753;28;20837;-75
2023/12/06 09:49:08;;;;;;;0.10;0.10;;;4.10;89.90;;;;;;5030080;28;20056;-75
2023/12/06 09:51:34;;;;;;;0.00;0.00;;;4.20;89.90;;;;;;5029409;28;20041;-74
2023/12/06 09:54:00;;;;;;;0.10;0.10;;;4.10;89.70;;;;;;5029711;28;20049;-74
2023/12/06 09:56:26;;;;;;;0.00;0.00;;;4.20;89.80;;;;;;5029847;28;20053;-74
2023/12/06 09:58:51;;;;;;;0.10;0.10;;;4.20;89.70;;;;;;5029580;28;20046;-74
2023/12/06 10:01:17;;;;;;;0.13;0.13;;;4.20;89.60;;;;;;5029468;28;20128;-74
2023/12/06 10:03:43;;;;;;;0.00;0.00;;;4.20;89.70;;;;;;4995432;28;20041;-74
2023/12/06 10:06:09;;;;;;;0.10;0.10;;;4.20;89.70;;;;;;5029272;28;20377;-74
2023/12/06 10:08:35;;;;;;;0.10;0.10;;;4.20;89.60;;;;;;5011874;28;20076;-75
2023/12/06 10:11:08;;;;;;;0.00;0.00;;;4.30;89.60;;;;;;5029211;28;20046;-74
2023/12/06 10:13:38;;;;;;;0.00;0.00;;;4.30;89.50;;;;;;5029131;28;20057;-74
2023/12/06 10:16:19;;;;;;;0.00;0.00;;;4.30;89.60;;;;;;5028860;28;20119;-74
2023/12/06 10:18:47;;;;;;;0.00;0.00;;;4.30;89.60;;;;;;5028894;28;20041;-74
2023/12/06 10:21:13;;;;;;;0.00;0.00;;;4.30;89.60;;;;;;5011443;28;20045;-74
2023/12/06 10:23:38;;;;;;;0.10;0.10;;;4.20;89.50;;;;;;5028848;28;20542;-74
2023/12/06 10:26:13;;;;;;;0.05;0.05;;;4.30;89.60;;;;;;5027899;28;20155;-75
2023/12/06 10:28:39;;;;;;;0.35;0.35;;;4.30;89.60;;;;;;5028633;28;20057;-74
2023/12/06 10:31:06;;;;;;;0.03;0.03;;;4.30;89.60;;;;;;5028705;28;20054;-75
2023/12/06 10:33:32;;;;;;;0.00;0.00;;;4.30;89.70;;;;;;5010865;28;20527;-74
2023/12/06 10:36:00;;;;;;;0.00;0.00;;;4.30;89.70;;;;;;5011199;28;20056;-74
2023/12/06 10:38:27;;;;;;;0.00;0.00;;;4.30;89.80;;;;;;5028435;28;20045;-74
2023/12/06 10:40:54;;;;;;;0.03;0.03;;;4.40;89.80;;;;;;5028964;28;20068;-74
2023/12/06 10:43:22;;;;;;;0.08;0.08;;;4.40;89.70;;;;;;5028824;28;20042;-74
2023/12/06 10:45:50;;;;;;;0.00;0.00;;;4.40;89.70;;;;;;5028553;28;20042;-75
2023/12/06 10:48:17;;;;;;;0.00;0.00;;;4.60;89.70;;;;;;5028642;28;20037;-74
2023/12/06 10:50:43;;;;;;;0.00;0.00;;;4.60;89.70;;;;;;5028280;28;20099;-75
2023/12/06 10:53:14;;;;;;;0.00;0.00;;;4.60;89.70;;;;;;5028425;28;20055;-75
2023/12/06 10:55:41;;;;;;;0.17;0.17;;;4.60;89.60;;;;;;5028349;28;20525;-75
2023/12/06 10:58:07;;;;;;;0.10;0.10;;;4.70;89.60;;;;;;5028372;28;20080;-75
2023/12/06 11:00:34;;;;;;;0.10;0.10;;;4.70;89.60;;;;;;5027975;28;20041;-75
2023/12/06 11:02:59;;;;;;;0.00;0.00;;;4.70;89.60;;;;;;5028364;28;20061;-75
2023/12/06 11:05:28;;;;;;;0.10;0.10;;;4.70;89.60;;;;;;5028498;28;20046;-75
2023/12/06 11:08:06;;;;;;;0.00;0.00;;;4.80;89.50;;;;;;5028362;28;20053;-75
2023/12/06 11:10:50;;;;;;;0.00;0.00;;;4.80;89.50;;;;;;5028316;28;20042;-75
2023/12/06 11:13:37;;;;;;;0.10;0.10;;;4.80;89.50;;;;;;5028331;28;20045;-73
2023/12/06 11:16:03;;;;;;;0.00;0.00;;;4.90;89.60;;;;;;5028191;28;20111;-74
2023/12/06 11:18:40;;;;;;;0.00;0.00;;;4.90;89.50;;;;;;5029492;28;20085;-74
2023/12/06 11:21:06;;;;;;;0.00;0.00;;;4.90;89.30;;;;;;5029443;28;20053;-74
2023/12/06 11:23:31;;;;;;;0.00;0.00;;;4.90;89.40;;;;;;5029847;28;20059;-74
2023/12/06 11:25:57;;;;;;;0.00;0.00;;;4.90;89.30;;;;;;5029419;28;20053;-74
2023/12/06 11:28:23;;;;;;;0.10;0.10;;;5.00;89.20;;;;;;5028965;28;20103;-73
2023/12/06 11:30:57;;;;;;;0.40;0.40;;;4.90;89.20;;;;;;5029262;28;20050;-74
2023/12/06 11:33:23;;;;;;;0.00;0.00;;;5.00;89.20;;;;;;5033367;28;20037;-74
2023/12/06 11:35:54;;;;;;;0.47;0.47;;;5.00;89.10;;;;;;5031521;28;20054;-74
2023/12/06 11:38:30;;;;;;;0.77;0.77;;;5.00;89.20;;;;;;5028845;28;20124;-74
2023/12/06 11:40:57;;;;;;;0.00;0.00;;;5.00;89.10;;;;;;5029029;28;20053;-73
2023/12/06 11:43:37;;;;;;;0.03;0.03;;;5.00;89.30;;;;;;5028557;28;20056;-74
2023/12/06 11:46:10;;;;;;;0.00;0.00;;;5.00;89.30;;;;;;5027893;28;20081;-73
2023/12/06 11:48:41;;;;;;;0.00;0.00;;;5.00;89.20;;;;;;5028877;28;20789;-73
2023/12/06 11:51:07;;;;;;;0.52;0.52;;;5.00;89.20;;;;;;5027710;28;20033;-73
2023/12/06 11:53:38;;;;;;;0.05;0.05;;;5.10;89.30;;;;;;5010596;28;20056;-74
2023/12/06 11:56:05;;;;;;;0.00;0.00;;;5.10;89.20;;;;;;5027811;28;20055;-73
2023/12/06 11:58:31;;;;;;;1.42;1.33;;;5.10;89.20;;;;;;5027343;28;20049;-74
2023/12/06 12:01:00;;;;;;;0.00;0.00;;;5.10;89.20;;;;;;5027418;28;20060;-74
2023/12/06 12:03:26;;;;;;;0.03;0.03;;;5.10;89.20;;;;;;5027411;28;20041;-73
2023/12/06 12:05:53;;;;;;;0.10;0.10;;;5.10;89.00;;;;;;5027410;28;20041;-74
2023/12/06 12:08:19;;;;;;;0.10;0.10;;;5.10;89.10;;;;;;5026574;28;20784;-74
2023/12/06 12:10:46;;;;;;;0.03;0.03;;;5.10;89.00;;;;;;5027150;28;20142;-73
2023/12/06 12:13:23;;;;;;;0.00;0.00;;;5.10;89.10;;;;;;4992985;28;20053;-73
2023/12/06 12:15:56;;;;;;;0.10;0.10;;;5.10;89.10;;;;;;5026987;28;20046;-73
2023/12/06 12:18:24;;;;;;;0.10;0.10;;;5.10;89.10;;;;;;5026866;28;20041;-73
2023/12/06 12:20:50;;;;;;;0.52;0.38;;;5.10;89.10;;;;;;5027047;28;20042;-73
2023/12/06 12:23:16;;;;;;;0.10;0.10;;;5.10;89.20;;;;;;5026682;28;20045;-73
2023/12/06 12:25:51;;;;;;;0.08;0.08;;;5.00;88.80;;;;;;5009340;28;20053;-73
2023/12/06 12:28:17;;;;;;;1.55;1.27;;;4.90;88.90;;;;;;5027120;28;20563;-73
2023/12/06 12:30:46;;;;;;;0.10;0.10;;;4.90;89.20;;;;;;5009360;28;20051;-73
2023/12/06 12:33:14;;;;;;;0.00;0.00;;;4.80;89.00;;;;;;5026314;28;20072;-74
2023/12/06 12:35:40;;;;;;;0.10;0.10;;;4.80;89.20;;;;;;5026407;28;20129;-74
2023/12/06 12:38:06;;;;;;;0.00;0.00;;;4.80;89.10;;;;;;5009490;28;20080;-73
2023/12/06 12:40:31;;;;;;;0.08;0.08;;;4.70;88.90;;;;;;5026515;28;20088;-72
2023/12/06 12:42:57;;;;;;;0.10;0.10;;;4.70;88.90;;;;;;5026502;28;20125;-73
2023/12/06 12:45:23;;;;;;;0.20;0.20;;;4.70;88.90;;;;;;5026969;28;20099;-73
2023/12/06 12:47:49;;;;;;;0.00;0.00;;;4.70;89.00;;;;;;5027931;28;20518;-73
2023/12/06 12:50:19;;;;;;;0.10;0.10;;;4.60;89.00;;;;;;5031169;28;20124;-73
2023/12/06 12:52:45;;;;;;;0.10;0.10;;;4.70;89.10;;;;;;5012616;28;20141;-74
2023/12/06 12:55:10;;;;;;;0.10;0.10;;;4.60;89.00;;;;;;5030835;28;20416;-74